Time;durP1;ratioP1;P1;durP2;ratioP2;P2;SDS_P1;SDS_P2;PMS_P1;PMS_P2;Temp;Humidity;BMP_temperature;BMP_pressure;BME280_temperature;BME280_humidity;BME280_pressure;Samples;Min_cycle;Max_cycle;Signal;HPM_P1;HPM_P2
2022/12/30 00:01:10;;;;;;;22.80;4.07;;;7.10;99.90;;;;;;5043436;28;20063;-77
2022/12/30 00:03:36;;;;;;;22.88;3.92;;;7.00;99.90;;;;;;5045794;28;20052;-77
2022/12/30 00:06:14;;;;;;;15.02;3.80;;;7.00;99.90;;;;;;5037096;28;20175;-78
2022/12/30 00:08:47;;;;;;;20.77;3.80;;;7.00;99.90;;;;;;5053281;28;20049;-78
2022/12/30 00:11:19;;;;;;;20.58;4.38;;;7.00;99.90;;;;;;5054325;28;20072;-77
2022/12/30 00:34:05;;;;;;;18.05;4.03;;;6.80;99.90;;;;;;5047628;28;20052;-78
2022/12/30 00:36:31;;;;;;;20.38;3.53;;;6.90;99.90;;;;;;5055657;28;20398;-77
2022/12/30 00:38:57;;;;;;;18.70;4.07;;;6.80;99.90;;;;;;5050385;28;20037;-77
2022/12/30 00:44:07;;;;;;;19.75;3.60;;;6.80;99.90;;;;;;5052331;28;20056;-78
2022/12/30 00:46:35;;;;;;;14.98;3.05;;;6.80;99.90;;;;;;5050345;28;20420;-77
2022/12/30 00:57:13;;;;;;;15.65;3.10;;;6.80;99.90;;;;;;5033766;28;20115;-77
2022/12/30 00:59:39;;;;;;;16.92;3.05;;;6.80;99.90;;;;;;5041287;28;20045;-78
2022/12/30 01:02:04;;;;;;;20.45;3.58;;;6.80;99.90;;;;;;5052536;28;20041;-78
2022/12/30 01:04:30;;;;;;;16.35;3.35;;;6.80;99.90;;;;;;5040629;28;20440;-77
2022/12/30 01:06:56;;;;;;;19.42;4.47;;;6.80;99.90;;;;;;5043367;28;20068;-77
2022/12/30 01:09:21;;;;;;;21.95;3.80;;;6.80;99.90;;;;;;5031418;28;20044;-77
2022/12/30 01:12:07;;;;;;;18.02;3.53;;;6.80;99.90;;;;;;5044618;28;20366;-77
2022/12/30 01:14:43;;;;;;;17.65;3.38;;;7.40;99.90;;;;;;5039417;28;20045;-77
2022/12/30 01:17:11;;;;;;;13.13;2.78;;;6.70;99.90;;;;;;5043163;28;20100;-77
2022/12/30 01:19:37;;;;;;;21.80;3.38;;;6.70;99.90;;;;;;5044592;28;20044;-77
2022/12/30 01:22:04;;;;;;;21.92;3.60;;;6.70;99.90;;;;;;5052023;28;20036;-77
2022/12/30 01:24:29;;;;;;;16.52;3.25;;;6.70;99.90;;;;;;5043190;28;20390;-77
2022/12/30 01:26:55;;;;;;;21.90;3.63;;;6.70;99.90;;;;;;5043123;28;20048;-77
2022/12/30 01:29:36;;;;;;;15.85;3.65;;;6.70;99.90;;;;;;5043754;28;20047;-77
2022/12/30 01:32:04;;;;;;;19.95;3.40;;;6.70;99.90;;;;;;5050807;28;20088;-78
2022/12/30 01:34:29;;;;;;;16.15;3.15;;;6.70;99.90;;;;;;5054653;28;20512;-78
2022/12/30 01:36:55;;;;;;;18.25;3.70;;;6.70;99.90;;;;;;5048714;28;20037;-78
2022/12/30 01:39:21;;;;;;;17.15;3.45;;;6.70;99.90;;;;;;5057564;28;20060;-78
2022/12/30 01:41:47;;;;;;;22.85;3.70;;;6.60;99.90;;;;;;5049736;28;20047;-78
2022/12/30 01:44:47;;;;;;;22.02;3.75;;;6.60;99.90;;;;;;5035065;28;20041;-78
2022/12/30 01:47:22;;;;;;;17.30;3.25;;;6.60;99.90;;;;;;5034901;28;20040;-78
2022/12/30 01:49:52;;;;;;;19.55;3.67;;;6.60;99.90;;;;;;5046417;28;20045;-78
2022/12/30 01:52:23;;;;;;;23.98;4.10;;;6.60;99.90;;;;;;5047331;28;20041;-78
2022/12/30 01:54:50;;;;;;;17.63;3.88;;;6.50;99.90;;;;;;5049222;28;20041;-78
2022/12/30 01:57:16;;;;;;;18.23;3.75;;;6.70;99.90;;;;;;5055200;28;20048;-78
2022/12/30 01:59:43;;;;;;;21.92;4.18;;;6.60;99.90;;;;;;5051429;28;20045;-78
2022/12/30 02:02:10;;;;;;;18.70;3.53;;;6.60;99.90;;;;;;5049023;28;20123;-77
2022/12/30 02:04:35;;;;;;;17.10;3.20;;;6.50;99.90;;;;;;5039648;28;20049;-77
2022/12/30 02:07:03;;;;;;;17.27;3.45;;;6.50;99.90;;;;;;5050085;28;20047;-78
2022/12/30 02:09:31;;;;;;;16.45;3.22;;;6.50;99.90;;;;;;5049063;28;20140;-78
2022/12/30 02:11:58;;;;;;;19.48;3.50;;;6.50;99.90;;;;;;5050561;28;20067;-77
2022/12/30 02:14:26;;;;;;;24.40;4.28;;;6.50;99.90;;;;;;5043047;28;20076;-78
2022/12/30 02:17:05;;;;;;;21.02;4.88;;;6.50;99.90;;;;;;5044199;28;20036;-77
2022/12/30 02:19:54;;;;;;;15.80;3.47;;;6.50;99.90;;;;;;5045161;28;20496;-77
2022/12/30 02:22:42;;;;;;;18.10;4.25;;;6.50;99.90;;;;;;5055330;28;20180;-77
2022/12/30 02:25:50;;;;;;;17.30;3.17;;;6.50;99.90;;;;;;5045739;28;20045;-77
2022/12/30 02:28:34;;;;;;;17.92;3.40;;;6.40;99.90;;;;;;5035771;28;20049;-77
2022/12/30 02:31:34;;;;;;;16.15;3.08;;;6.40;99.90;;;;;;5041247;28;20140;-77
2022/12/30 02:34:20;;;;;;;21.10;3.70;;;6.40;99.90;;;;;;5043725;28;20049;-77
2022/12/30 02:36:53;;;;;;;16.35;3.15;;;6.40;99.90;;;;;;5041706;28;20128;-77
2022/12/30 02:39:39;;;;;;;15.20;2.95;;;6.40;99.90;;;;;;5042858;28;20396;-77
2022/12/30 02:45:04;;;;;;;21.67;3.50;;;6.30;99.90;;;;;;5065809;28;20053;-78
2022/12/30 02:47:39;;;;;;;16.63;3.25;;;6.30;99.90;;;;;;5050627;28;20060;-78
2022/12/30 02:53:00;;;;;;;13.57;3.80;;;6.20;99.90;;;;;;5044782;28;20083;-77
2022/12/30 02:55:26;;;;;;;21.15;4.40;;;6.20;99.90;;;;;;5033197;28;20048;-77
2022/12/30 02:57:51;;;;;;;15.25;2.97;;;6.20;99.90;;;;;;5050278;28;20060;-78
2022/12/30 03:06:52;;;;;;;15.52;2.80;;;6.10;99.90;;;;;;5063215;28;20072;-78
2022/12/30 03:09:27;;;;;;;18.50;3.35;;;6.00;99.90;;;;;;5035189;28;20109;-78
2022/12/30 03:11:52;;;;;;;17.40;3.72;;;6.00;99.90;;;;;;5050846;28;20055;-77
2022/12/30 03:14:33;;;;;;;22.05;3.47;;;6.00;99.90;;;;;;5045461;28;20041;-78
2022/12/30 03:17:06;;;;;;;13.02;2.97;;;5.90;99.90;;;;;;5044786;28;20542;-77
2022/12/30 03:19:35;;;;;;;;;;;5.90;99.90;;;;;;5050488;28;20045;-77
2022/12/30 03:22:02;;;;;;;15.45;3.17;;;5.90;99.90;;;;;;5036068;28;19917;-77
2022/12/30 03:27:21;;;;;;;13.93;3.63;;;5.80;99.90;;;;;;5039806;28;20057;-77
2022/12/30 03:29:56;;;;;;;19.05;3.22;;;5.80;99.90;;;;;;5041574;28;20041;-77
2022/12/30 03:32:22;;;;;;;15.82;3.13;;;5.80;99.90;;;;;;5060151;28;20397;-76
2022/12/30 03:34:49;;;;;;;17.15;3.83;;;5.80;99.90;;;;;;5046562;28;20044;-77
2022/12/30 03:37:21;;;;;;;15.63;3.20;;;5.80;99.90;;;;;;5047275;28;20053;-77
2022/12/30 03:39:59;;;;;;;;;;;5.70;99.90;;;;;;5047786;28;20068;-77
2022/12/30 03:42:25;;;;;;;18.73;3.45;;;5.80;99.90;;;;;;5039289;28;20356;-77
2022/12/30 03:44:51;;;;;;;12.10;2.50;;;5.70;99.90;;;;;;5047171;28;20507;-77
2022/12/30 03:47:18;;;;;;;19.70;3.67;;;5.70;99.90;;;;;;5045041;28;20037;-77
2022/12/30 03:49:44;;;;;;;15.25;3.40;;;5.70;99.90;;;;;;5042773;28;20033;-77
2022/12/30 03:52:14;;;;;;;19.90;3.28;;;5.70;99.90;;;;;;5043528;28;20179;-77
2022/12/30 03:54:41;;;;;;;15.75;3.22;;;5.70;99.90;;;;;;5049912;28;20063;-77
2022/12/30 03:57:07;;;;;;;19.08;3.83;;;5.70;99.90;;;;;;5049194;28;20049;-85
2022/12/30 03:59:33;;;;;;;19.52;3.35;;;5.60;99.90;;;;;;5028038;28;20116;-79
2022/12/30 04:02:00;;;;;;;22.02;3.80;;;5.60;99.90;;;;;;5033626;28;20064;-79
2022/12/30 04:04:35;;;;;;;13.13;3.40;;;5.60;99.90;;;;;;5036680;28;20048;-78
2022/12/30 04:07:10;;;;;;;12.93;3.30;;;5.60;99.90;;;;;;5050851;28;20058;-79
2022/12/30 04:09:39;;;;;;;18.85;3.78;;;5.60;99.90;;;;;;5058822;28;20044;-81
2022/12/30 04:12:05;;;;;;;14.05;3.33;;;5.60;99.90;;;;;;5051423;28;20140;-81
2022/12/30 04:14:34;;;;;;;15.05;3.25;;;5.50;99.90;;;;;;5022199;28;20044;-79
2022/12/30 04:17:03;;;;;;;12.80;3.38;;;5.60;99.90;;;;;;5053376;28;20044;-79
2022/12/30 04:19:29;;;;;;;16.02;3.50;;;5.50;99.90;;;;;;5025971;28;20045;-78
2022/12/30 04:21:54;;;;;;;16.80;3.47;;;5.50;99.90;;;;;;5045417;28;20121;-79
2022/12/30 04:24:20;;;;;;;20.17;3.58;;;5.50;99.90;;;;;;5050408;28;20041;-78
2022/12/30 04:26:47;;;;;;;12.98;3.17;;;5.90;99.90;;;;;;5042497;28;20044;-79
2022/12/30 04:29:13;;;;;;;15.68;3.05;;;5.50;99.90;;;;;;5057313;28;20080;-78
2022/12/30 04:31:43;;;;;;;16.63;3.40;;;5.50;99.90;;;;;;5059168;28;20087;-79
2022/12/30 04:34:12;;;;;;;15.13;3.25;;;5.50;99.90;;;;;;5043610;28;20424;-79
2022/12/30 04:36:37;;;;;;;16.20;3.85;;;5.50;99.90;;;;;;5060519;28;20040;-81
2022/12/30 04:39:04;;;;;;;23.90;5.18;;;5.50;99.90;;;;;;5048682;28;20087;-79
2022/12/30 04:41:29;;;;;;;12.77;3.25;;;6.10;99.90;;;;;;5032768;28;20378;-78
2022/12/30 04:43:56;;;;;;;11.32;3.20;;;5.40;99.90;;;;;;5058388;28;20282;-79
2022/12/30 04:46:27;;;;;;;10.35;3.40;;;5.40;99.90;;;;;;5060646;28;20043;-79
2022/12/30 04:48:56;;;;;;;14.65;3.13;;;5.50;99.90;;;;;;5055135;28;20037;-81
2022/12/30 04:51:33;;;;;;;16.25;3.28;;;5.40;99.90;;;;;;5044177;28;20530;-79
2022/12/30 04:54:06;;;;;;;14.52;3.15;;;5.40;99.90;;;;;;5056588;28;20500;-79
2022/12/30 04:56:37;;;;;;;14.80;3.20;;;5.40;99.90;;;;;;5046846;28;20080;-79
2022/12/30 04:59:16;;;;;;;14.25;3.05;;;5.40;99.90;;;;;;5023750;28;20486;-80
2022/12/30 05:02:16;;;;;;;20.23;4.70;;;5.40;99.90;;;;;;5050736;28;20554;-79
2022/12/30 05:04:42;;;;;;;15.85;3.03;;;5.40;99.90;;;;;;5034506;28;20045;-79
2022/12/30 05:07:08;;;;;;;14.20;3.00;;;5.40;99.90;;;;;;5027174;28;20645;-79
2022/12/30 05:09:35;;;;;;;11.30;3.25;;;5.40;99.90;;;;;;5026362;28;20117;-79
2022/12/30 05:12:01;;;;;;;16.48;3.53;;;5.30;99.90;;;;;;5054964;28;20048;-79
2022/12/30 05:14:33;;;;;;;11.23;3.38;;;5.40;99.90;;;;;;5017375;28;20481;-79
2022/12/30 05:16:59;;;;;;;16.92;3.45;;;5.30;99.90;;;;;;5036922;28;20047;-81
2022/12/30 05:19:24;;;;;;;12.05;2.90;;;5.30;99.90;;;;;;5038671;28;20109;-79
2022/12/30 05:21:50;;;;;;;20.58;3.65;;;5.30;99.90;;;;;;5015130;28;20037;-79
2022/12/30 05:27:03;;;;;;;13.57;3.00;;;5.30;99.90;;;;;;5040667;28;20056;-79
2022/12/30 05:29:29;;;;;;;13.48;2.60;;;6.10;99.90;;;;;;5018460;28;20053;-81
2022/12/30 05:31:55;;;;;;;15.32;3.28;;;5.30;99.90;;;;;;5020294;28;20047;-80
2022/12/30 05:34:25;;;;;;;16.98;3.22;;;5.80;99.90;;;;;;5065700;28;20045;-79
2022/12/30 05:36:51;;;;;;;14.60;3.15;;;5.20;99.90;;;;;;5049730;28;20037;-80
2022/12/30 05:39:17;;;;;;;17.20;3.50;;;5.80;99.90;;;;;;5068375;28;20519;-79
2022/12/30 05:41:48;;;;;;;12.65;3.67;;;5.30;99.90;;;;;;5035777;28;20365;-79
2022/12/30 05:44:14;;;;;;;12.40;3.10;;;5.20;99.90;;;;;;5065242;28;20052;-80
2022/12/30 05:46:39;;;;;;;13.52;3.50;;;5.10;99.90;;;;;;5070137;28;20401;-83
2022/12/30 05:49:05;;;;;;;14.13;3.17;;;5.10;99.90;;;;;;5056095;28;20052;-80
2022/12/30 05:51:31;;;;;;;15.25;3.47;;;4.80;99.90;;;;;;5046741;28;20041;-80
2022/12/30 05:53:59;;;;;;;12.38;2.97;;;5.10;99.90;;;;;;5044504;28;20040;-82
2022/12/30 05:56:28;;;;;;;17.58;3.85;;;5.10;99.90;;;;;;5030537;28;20041;-82
2022/12/30 05:58:54;;;;;;;17.77;3.20;;;5.10;99.90;;;;;;5059662;28;20041;-82
2022/12/30 06:01:20;;;;;;;11.65;2.85;;;5.10;99.90;;;;;;5060442;28;20082;-83
2022/12/30 06:03:45;;;;;;;13.88;2.80;;;5.10;99.90;;;;;;5062686;28;20032;-85
2022/12/30 06:06:11;;;;;;;13.48;3.25;;;5.10;99.90;;;;;;5064131;28;20041;-82
2022/12/30 06:08:38;;;;;;;15.43;2.92;;;5.10;99.90;;;;;;5067649;28;20033;-82
2022/12/30 06:11:04;;;;;;;14.80;3.25;;;5.10;99.90;;;;;;5052492;28;20040;-79
2022/12/30 06:13:30;;;;;;;15.93;3.22;;;5.10;99.90;;;;;;5052352;28;20041;-79
2022/12/30 06:15:55;;;;;;;15.30;2.92;;;5.10;99.90;;;;;;5061659;28;20048;-80
2022/12/30 06:18:21;;;;;;;18.73;3.63;;;5.40;99.90;;;;;;5077975;28;20040;-81
2022/12/30 06:20:52;;;;;;;13.15;4.03;;;5.10;99.90;;;;;;5063935;28;20045;-80
2022/12/30 06:23:42;;;;;;;16.55;3.60;;;5.10;99.90;;;;;;5058815;28;20044;-82
2022/12/30 06:26:10;;;;;;;15.75;3.35;;;5.10;99.90;;;;;;5062926;28;20038;-83
2022/12/30 06:28:36;;;;;;;11.60;3.50;;;5.00;99.90;;;;;;5064841;28;20051;-79
2022/12/30 06:31:02;;;;;;;14.10;3.30;;;5.00;99.90;;;;;;5055102;28;20033;-80
2022/12/30 06:33:28;;;;;;;17.00;3.63;;;5.10;99.90;;;;;;5059570;28;20059;-80
2022/12/30 06:35:53;;;;;;;17.20;3.80;;;5.00;99.90;;;;;;5051736;28;20036;-79
2022/12/30 06:38:20;;;;;;;16.95;2.88;;;5.10;99.90;;;;;;5052302;28;20088;-79
2022/12/30 06:40:45;;;;;;;10.85;3.28;;;5.60;99.90;;;;;;5043592;28;20033;-81
2022/12/30 06:43:12;;;;;;;18.02;3.72;;;5.00;99.90;;;;;;5047908;28;20033;-79
2022/12/30 06:45:37;;;;;;;11.93;3.50;;;6.10;99.90;;;;;;5053899;28;20040;-80
2022/12/30 06:48:03;;;;;;;16.08;3.72;;;4.90;99.90;;;;;;5038665;28;20044;-80
2022/12/30 06:50:29;;;;;;;16.65;3.60;;;5.00;99.90;;;;;;5054885;28;20065;-82
2022/12/30 06:52:55;;;;;;;14.98;3.55;;;4.90;99.90;;;;;;5051312;28;20041;-80
2022/12/30 06:55:21;;;;;;;14.65;3.15;;;4.90;99.90;;;;;;5053372;28;20116;-80
2022/12/30 06:57:48;;;;;;;17.80;3.30;;;4.90;99.90;;;;;;5062228;28;20033;-80
2022/12/30 07:00:14;;;;;;;15.80;3.00;;;5.30;99.90;;;;;;5054392;28;20049;-82
2022/12/30 07:02:40;;;;;;;17.35;2.92;;;4.90;99.90;;;;;;5055073;28;20035;-82
2022/12/30 07:05:06;;;;;;;12.50;3.17;;;4.90;99.90;;;;;;5070038;28;20041;-86
2022/12/30 07:07:32;;;;;;;17.05;3.78;;;4.90;99.90;;;;;;5054928;28;20052;-81
2022/12/30 07:09:57;;;;;;;17.95;3.45;;;5.00;99.90;;;;;;5058271;28;20033;-81
2022/12/30 07:12:23;;;;;;;19.83;3.83;;;5.00;99.90;;;;;;5061737;28;20039;-81
2022/12/30 07:14:49;;;;;;;16.98;3.47;;;4.90;99.90;;;;;;5059823;28;20041;-78
2022/12/30 07:17:18;;;;;;;17.42;3.67;;;4.90;99.90;;;;;;5065418;28;20032;-84
2022/12/30 07:19:56;;;;;;;19.13;3.73;;;4.90;99.90;;;;;;5062866;28;20045;-81
2022/12/30 07:22:25;;;;;;;15.25;3.47;;;5.00;99.90;;;;;;5062088;28;20286;-80
2022/12/30 07:24:50;;;;;;;17.17;3.58;;;5.00;99.90;;;;;;5048874;28;20037;-84
2022/12/30 07:27:16;;;;;;;13.80;3.10;;;5.00;99.90;;;;;;5038285;28;20045;-83
2022/12/30 07:29:43;;;;;;;17.73;3.58;;;4.90;99.90;;;;;;5080407;28;20106;-81
2022/12/30 07:32:10;;;;;;;16.95;3.45;;;6.00;99.90;;;;;;5051949;28;20037;-76
2022/12/30 07:34:39;;;;;;;17.50;3.58;;;5.00;99.90;;;;;;5044976;28;20503;-78
2022/12/30 07:37:05;;;;;;;15.70;3.40;;;5.00;99.90;;;;;;5048496;28;20045;-78
2022/12/30 07:39:32;;;;;;;15.93;3.28;;;5.00;99.90;;;;;;5043114;28;20131;-78
2022/12/30 07:41:57;;;;;;;13.77;3.50;;;5.00;99.90;;;;;;5046003;28;20392;-78
2022/12/30 07:44:23;;;;;;;16.98;3.35;;;5.00;99.90;;;;;;5046786;28;20044;-78
2022/12/30 07:46:48;;;;;;;18.77;3.80;;;5.00;99.90;;;;;;5048766;28;20120;-78
2022/12/30 07:49:14;;;;;;;14.13;3.30;;;5.00;99.90;;;;;;5038206;28;20515;-78
2022/12/30 07:51:39;;;;;;;21.00;3.50;;;5.00;99.90;;;;;;5041219;28;20048;-78
2022/12/30 07:54:05;;;;;;;16.17;3.20;;;5.00;99.90;;;;;;5049180;28;20041;-78
2022/12/30 07:56:31;;;;;;;18.35;3.10;;;5.00;99.90;;;;;;5047579;28;20040;-78
2022/12/30 07:58:58;;;;;;;12.95;2.90;;;5.00;99.90;;;;;;5051818;28;20040;-78
2022/12/30 08:01:24;;;;;;;15.73;3.00;;;5.00;99.90;;;;;;5041995;28;20033;-78
2022/12/30 08:03:50;;;;;;;14.15;3.20;;;5.00;99.90;;;;;;5036654;28;20033;-78
2022/12/30 08:06:18;;;;;;;15.73;3.30;;;5.00;99.90;;;;;;5038335;28;20092;-78
2022/12/30 08:08:44;;;;;;;20.77;3.92;;;5.10;99.90;;;;;;5062423;28;20029;-79
2022/12/30 08:11:11;;;;;;;17.58;3.92;;;5.10;99.90;;;;;;5055734;28;20067;-78
2022/12/30 08:13:40;;;;;;;16.30;2.90;;;5.10;99.90;;;;;;5057357;28;20032;-79
2022/12/30 08:16:07;;;;;;;17.23;3.80;;;5.10;99.90;;;;;;5040289;28;20072;-78
2022/12/30 08:18:36;;;;;;;11.82;2.97;;;5.10;99.90;;;;;;5067521;28;20064;-79
2022/12/30 08:21:04;;;;;;;12.98;3.80;;;5.10;99.90;;;;;;5048932;28;20052;-79
2022/12/30 08:23:31;;;;;;;18.58;3.28;;;5.10;99.90;;;;;;5072014;28;20067;-79
2022/12/30 08:26:02;;;;;;;17.35;3.47;;;5.10;99.90;;;;;;5049952;28;20041;-80
2022/12/30 08:28:28;;;;;;;12.57;3.75;;;5.20;99.90;;;;;;5051733;28;20041;-79
2022/12/30 08:30:53;;;;;;;16.83;3.83;;;5.20;99.90;;;;;;5061630;28;20377;-79
2022/12/30 08:33:19;;;;;;;20.25;3.58;;;5.20;99.90;;;;;;5069218;28;20051;-79
2022/12/30 08:35:44;;;;;;;11.13;3.00;;;5.20;99.90;;;;;;5068993;28;20071;-78
2022/12/30 08:38:10;;;;;;;12.63;3.08;;;5.30;99.90;;;;;;5063012;28;20037;-79
2022/12/30 08:40:35;;;;;;;13.85;3.17;;;5.30;99.90;;;;;;5043538;28;20040;-78
2022/12/30 08:43:01;;;;;;;16.27;3.78;;;5.30;99.90;;;;;;5064773;28;20068;-79
2022/12/30 08:45:27;;;;;;;14.65;3.58;;;5.30;99.90;;;;;;5043637;28;20068;-79
2022/12/30 08:47:52;;;;;;;9.82;2.83;;;5.40;99.90;;;;;;5066857;28;20036;-79
2022/12/30 08:50:18;;;;;;;17.17;3.92;;;5.40;99.90;;;;;;5050511;28;20106;-79
2022/12/30 08:52:44;;;;;;;15.77;3.53;;;5.40;99.90;;;;;;5061090;28;20067;-78
2022/12/30 08:55:09;;;;;;;13.85;3.17;;;5.50;99.90;;;;;;5050306;28;20045;-78
2022/12/30 08:57:39;;;;;;;13.55;3.47;;;5.50;99.90;;;;;;5051592;28;20037;-78
2022/12/30 09:00:06;;;;;;;13.88;3.45;;;5.60;99.90;;;;;;5058575;28;20055;-78
2022/12/30 09:02:35;;;;;;;9.70;3.30;;;5.60;99.90;;;;;;5060328;28;20032;-78
2022/12/30 09:05:01;;;;;;;15.95;3.22;;;5.60;99.90;;;;;;5041800;28;20037;-78
2022/12/30 09:07:26;;;;;;;15.38;3.47;;;5.60;99.90;;;;;;5063229;28;20037;-79
2022/12/30 09:09:54;;;;;;;18.95;3.45;;;5.60;99.90;;;;;;5032483;28;20068;-78
2022/12/30 09:12:20;;;;;;;17.85;3.42;;;5.60;99.90;;;;;;5037358;28;20067;-79
2022/12/30 09:14:45;;;;;;;12.23;2.80;;;5.70;99.90;;;;;;5060705;28;20048;-78
2022/12/30 09:17:11;;;;;;;20.58;4.10;;;5.70;99.90;;;;;;5057978;28;20055;-79
2022/12/30 09:19:37;;;;;;;13.38;2.65;;;5.80;99.90;;;;;;5046814;28;20110;-79
2022/12/30 09:22:02;;;;;;;16.40;3.40;;;5.80;99.90;;;;;;5059213;28;20063;-78
2022/12/30 09:24:28;;;;;;;10.88;2.97;;;5.80;99.90;;;;;;5037503;28;20096;-78
2022/12/30 09:26:53;;;;;;;12.40;2.75;;;5.80;99.90;;;;;;5062664;28;20049;-78
2022/12/30 09:29:19;;;;;;;13.13;3.45;;;5.90;99.90;;;;;;5062310;28;20060;-78
2022/12/30 09:31:45;;;;;;;11.52;2.92;;;5.90;99.90;;;;;;5044384;28;20041;-78
2022/12/30 09:34:11;;;;;;;13.35;3.00;;;5.90;99.90;;;;;;5057639;28;20042;-78
2022/12/30 09:36:37;;;;;;;14.68;3.03;;;6.00;99.90;;;;;;5037608;28;20033;-79
2022/12/30 09:39:03;;;;;;;14.10;3.38;;;6.00;99.90;;;;;;5053511;28;20408;-79
2022/12/30 09:44:49;;;;;;;10.70;2.38;;;6.00;99.90;;;;;;5038896;28;20056;-80
2022/12/30 09:47:20;;;;;;;;;;;6.10;99.90;;;;;;5048614;28;20049;-80
2022/12/30 09:49:52;;;;;;;8.73;2.42;;;6.10;99.90;;;;;;5051739;28;19925;-80
2022/12/30 09:52:31;;;;;;;12.35;2.83;;;6.10;99.90;;;;;;5057404;28;20067;-80
2022/12/30 09:55:03;;;;;;;14.00;2.80;;;6.20;99.90;;;;;;5050039;28;20041;-80
2022/12/30 09:57:33;;;;;;;12.43;3.08;;;6.20;99.90;;;;;;5070718;22;20045;-78
2022/12/30 10:00:20;;;;;;;13.73;2.95;;;6.30;99.90;;;;;;5004421;28;20091;-78
2022/12/30 10:02:57;;;;;;;10.27;2.47;;;6.30;99.90;;;;;;5010612;28;20056;-79
2022/12/30 10:06:01;;;;;;;13.07;2.50;;;6.30;99.90;;;;;;5010773;28;20042;-78
2022/12/30 10:08:46;;;;;;;9.40;2.75;;;6.30;99.90;;;;;;5024820;28;20037;-78
2022/12/30 10:11:28;;;;;;;8.27;2.75;;;6.50;99.90;;;;;;5013165;28;20408;-78
2022/12/30 10:14:28;;;;;;;10.52;2.78;;;6.50;99.90;;;;;;5028809;28;20041;-78
2022/12/30 10:17:14;;;;;;;10.30;2.28;;;6.40;99.90;;;;;;5024682;28;20037;-78
2022/12/30 10:20:02;;;;;;;8.43;2.30;;;6.50;99.90;;;;;;5011529;28;20030;-78
2022/12/30 10:22:40;;;;;;;12.02;2.38;;;6.60;99.90;;;;;;5007736;28;20041;-78
2022/12/30 10:25:28;;;;;;;10.50;2.40;;;6.60;99.90;;;;;;5027501;28;20179;-75
2022/12/30 10:27:57;;;;;;;8.95;2.78;;;6.60;99.90;;;;;;5022518;28;20445;-77
2022/12/30 10:30:29;;;;;;;8.43;2.42;;;6.70;99.90;;;;;;5015373;28;20084;-78
2022/12/30 10:33:02;;;;;;;11.23;2.35;;;6.70;99.90;;;;;;5013589;28;20038;-78
2022/12/30 10:35:32;;;;;;;7.35;1.90;;;7.20;99.90;;;;;;4989756;28;20081;-78
2022/12/30 10:38:22;;;;;;;7.20;2.30;;;6.80;99.90;;;;;;4997938;28;20076;-78
2022/12/30 10:41:08;;;;;;;8.25;2.20;;;6.80;99.90;;;;;;5013333;28;20517;-79
2022/12/30 10:43:52;;;;;;;7.75;2.10;;;6.80;99.90;;;;;;5029219;28;20069;-78
2022/12/30 10:46:35;;;;;;;6.15;2.35;;;6.80;99.90;;;;;;4999989;28;20130;-77
2022/12/30 10:49:11;;;;;;;12.40;2.38;;;6.90;99.90;;;;;;5030569;28;20041;-78
2022/12/30 10:51:37;;;;;;;8.13;2.00;;;6.90;99.90;;;;;;5012615;28;20045;-78
2022/12/30 10:54:03;;;;;;;9.63;2.20;;;7.10;99.90;;;;;;5032320;28;20044;-78
2022/12/30 10:56:31;;;;;;;7.43;1.92;;;7.20;99.90;;;;;;5020527;28;20145;-78
2022/12/30 10:59:03;;;;;;;7.40;2.20;;;7.20;99.90;;;;;;5004621;28;20042;-78
2022/12/30 11:01:36;;;;;;;11.40;1.95;;;7.00;99.90;;;;;;5008471;28;20040;-78
2022/12/30 11:04:02;;;;;;;9.73;2.20;;;7.00;99.90;;;;;;5024129;28;20090;-78
2022/12/30 11:06:36;;;;;;;9.90;1.80;;;8.00;99.90;;;;;;5015620;28;20053;-78
2022/12/30 11:09:14;;;;;;;8.63;2.13;;;7.10;99.90;;;;;;5034400;28;20033;-79
2022/12/30 11:14:47;;;;;;;7.78;2.03;;;7.10;99.90;;;;;;5026429;28;20041;-77
2022/12/30 11:17:16;;;;;;;8.00;2.33;;;7.10;99.90;;;;;;4999073;28;20033;-77
2022/12/30 11:19:43;;;;;;;8.60;2.25;;;7.60;99.90;;;;;;5034096;28;20591;-77
2022/12/30 11:22:10;;;;;;;11.50;2.58;;;8.00;99.90;;;;;;4994129;28;20042;-78
2022/12/30 11:24:38;;;;;;;8.57;1.92;;;7.20;99.90;;;;;;5028892;28;20045;-78
2022/12/30 11:27:06;;;;;;;8.88;2.00;;;8.10;99.90;;;;;;5029370;28;20721;-78
2022/12/30 11:29:34;;;;;;;8.55;1.90;;;7.20;99.90;;;;;;5032669;28;20112;-78
2022/12/30 11:32:10;;;;;;;9.40;1.98;;;7.20;99.90;;;;;;5003106;28;20041;-78
2022/12/30 11:34:40;;;;;;;7.72;1.98;;;7.20;99.90;;;;;;5008330;28;20069;-78
2022/12/30 11:37:32;;;;;;;9.63;2.08;;;7.70;99.90;;;;;;5033949;28;20053;-77
2022/12/30 11:40:19;;;;;;;6.43;2.10;;;7.40;99.90;;;;;;5017160;28;20037;-78
2022/12/30 11:42:45;;;;;;;5.80;1.80;;;8.10;99.90;;;;;;5019626;28;20037;-78
2022/12/30 11:45:20;;;;;;;8.70;2.03;;;7.40;99.90;;;;;;5001577;28;20493;-78
2022/12/30 11:47:47;;;;;;;5.80;1.88;;;7.40;99.90;;;;;;5019750;28;20077;-78
2022/12/30 11:50:19;;;;;;;8.27;2.20;;;7.50;99.90;;;;;;5009014;28;20049;-78
2022/12/30 11:52:52;;;;;;;8.82;1.75;;;7.70;99.90;;;;;;5020114;28;20034;-78
2022/12/30 11:55:22;;;;;;;7.07;1.90;;;7.60;99.90;;;;;;5036492;28;20103;-78
2022/12/30 11:57:48;;;;;;;6.50;1.48;;;7.60;99.90;;;;;;5003177;28;20045;-78
2022/12/30 12:00:17;;;;;;;5.93;1.70;;;8.60;99.90;;;;;;5024546;28;20053;-78
2022/12/30 12:02:58;;;;;;;12.05;1.95;;;7.70;99.90;;;;;;5002592;28;20072;-78
2022/12/30 12:05:30;;;;;;;5.95;1.60;;;7.90;99.90;;;;;;5010170;28;20076;-78
2022/12/30 12:08:02;;;;;;;5.78;1.40;;;8.70;99.90;;;;;;5010022;28;20052;-78
2022/12/30 12:10:35;;;;;;;7.10;1.80;;;8.60;99.90;;;;;;5014019;28;20049;-78
2022/12/30 12:13:06;;;;;;;4.90;1.60;;;8.60;99.90;;;;;;5009748;28;20033;-78
2022/12/30 12:15:48;;;;;;;5.25;1.40;;;7.90;99.90;;;;;;4994818;28;20045;-78
2022/12/30 12:18:42;;;;;;;7.68;1.50;;;7.90;99.90;;;;;;4992964;28;20042;-78
2022/12/30 12:21:26;;;;;;;5.63;1.80;;;7.90;99.90;;;;;;5033544;28;20045;-78
2022/12/30 12:24:13;;;;;;;7.95;1.55;;;7.90;99.90;;;;;;5032619;28;20044;-78
2022/12/30 12:26:52;;;;;;;6.75;1.70;;;7.90;99.90;;;;;;5013527;28;20121;-77
2022/12/30 12:29:18;;;;;;;5.93;1.92;;;7.90;99.90;;;;;;5006211;28;20496;-78
2022/12/30 12:32:21;;;;;;;8.50;1.80;;;9.00;99.90;;;;;;5032683;28;20096;-78
2022/12/30 12:35:25;;;;;;;6.72;1.83;;;8.00;99.90;;;;;;5010194;28;20050;-77
2022/12/30 12:38:13;;;;;;;10.05;1.75;;;8.10;99.90;;;;;;5017328;28;20041;-78
2022/12/30 12:40:58;;;;;;;3.55;1.45;;;8.10;99.90;;;;;;5016618;28;20509;-78
2022/12/30 12:43:45;;;;;;;11.93;2.20;;;8.10;99.90;;;;;;5024792;28;20048;-79
2022/12/30 12:46:33;;;;;;;7.22;2.20;;;8.50;99.90;;;;;;5020346;28;20075;-78
2022/12/30 12:49:10;;;;;;;8.15;1.80;;;8.10;99.90;;;;;;5019009;28;20505;-78
2022/12/30 12:51:39;;;;;;;6.22;1.73;;;8.10;99.90;;;;;;5000851;28;20440;-78
2022/12/30 12:54:17;;;;;;;6.43;2.00;;;8.20;99.90;;;;;;4997469;28;20429;-78
2022/12/30 12:57:03;;;;;;;7.72;2.10;;;8.20;99.90;;;;;;5026969;28;20398;-78
2022/12/30 12:59:53;;;;;;;5.38;1.45;;;8.20;99.90;;;;;;5017727;28;20045;-78
2022/12/30 13:02:43;;;;;;;7.60;1.85;;;8.20;99.90;;;;;;5016920;28;20045;-79
2022/12/30 13:05:15;;;;;;;6.35;1.85;;;8.20;99.90;;;;;;5006163;28;20053;-77
2022/12/30 13:08:08;;;;;;;5.00;1.60;;;9.20;99.90;;;;;;5017040;28;20095;-78
2022/12/30 13:11:07;;;;;;;8.38;1.85;;;8.30;99.90;;;;;;5032410;28;20056;-78
2022/12/30 13:14:01;;;;;;;9.30;1.90;;;8.30;99.90;;;;;;5010332;28;20100;-78
2022/12/30 13:16:32;;;;;;;7.03;2.25;;;8.30;99.90;;;;;;5020682;28;20046;-78
2022/12/30 13:19:00;;;;;;;10.32;2.10;;;9.10;99.90;;;;;;5024376;28;20461;-78
2022/12/30 13:21:26;;;;;;;9.82;2.20;;;8.30;99.90;;;;;;4998483;28;20120;-78
2022/12/30 13:24:01;;;;;;;6.40;2.30;;;9.10;99.90;;;;;;5030800;28;20076;-78
2022/12/30 13:26:28;;;;;;;10.63;2.38;;;8.40;99.90;;;;;;5007691;28;20045;-78
2022/12/30 13:28:58;;;;;;;10.00;2.30;;;8.40;99.90;;;;;;5034373;28;20042;-78
2022/12/30 13:31:34;;;;;;;5.07;1.70;;;8.40;99.90;;;;;;5030124;28;20495;-78
2022/12/30 13:34:12;;;;;;;6.75;1.73;;;8.40;99.90;;;;;;5009525;28;20173;-78
2022/12/30 13:36:50;;;;;;;9.10;2.17;;;8.70;99.90;;;;;;5027819;28;20044;-78
2022/12/30 13:39:40;;;;;;;5.95;1.77;;;8.40;99.90;;;;;;5022104;28;20609;-78
2022/12/30 13:42:34;;;;;;;8.57;1.98;;;8.50;99.90;;;;;;5029815;28;20037;-78
2022/12/30 13:45:00;;;;;;;8.73;2.13;;;8.50;99.90;;;;;;5013938;28;20041;-78
2022/12/30 13:47:39;;;;;;;6.88;2.13;;;8.70;99.90;;;;;;5021472;28;20034;-78
2022/12/30 13:50:35;;;;;;;8.55;2.45;;;9.60;99.90;;;;;;4999489;28;20587;-77
2022/12/30 13:53:03;;;;;;;9.20;2.03;;;9.20;99.90;;;;;;4992309;28;20121;-78
2022/12/30 13:55:36;;;;;;;5.85;2.10;;;8.70;99.90;;;;;;5000153;28;20073;-78
2022/12/30 13:58:15;;;;;;;7.65;2.05;;;8.70;99.90;;;;;;5010861;28;20052;-78
2022/12/30 14:00:42;;;;;;;7.88;2.28;;;9.30;99.90;;;;;;5027810;28;20401;-78
2022/12/30 14:03:16;;;;;;;5.05;1.70;;;8.70;99.90;;;;;;5023468;28;20100;-78
2022/12/30 14:05:42;;;;;;;6.28;1.60;;;8.80;99.90;;;;;;5010065;28;20042;-78
2022/12/30 14:08:16;;;;;;;7.85;1.90;;;8.80;99.90;;;;;;5013847;28;20042;-79